createdAt,value
2022-11-04T00:02:02.004Z,30.88
2022-11-04T00:04:28.757Z,28.12
2022-11-04T00:06:56.186Z,31.02
2022-11-04T00:09:24.533Z,33.78
2022-11-04T00:12:10.198Z,30.98
2022-11-04T00:14:36.854Z,29.70
2022-11-04T00:17:19.879Z,32.22
2022-11-04T00:20:05.868Z,27.70
2022-11-04T00:22:51.492Z,29.20
2022-11-04T00:25:36.705Z,29.00
2022-11-04T00:28:31.934Z,32.40
2022-11-04T00:31:19.124Z,29.23
2022-11-04T00:33:46.835Z,32.95
2022-11-04T00:36:13.454Z,30.65
2022-11-04T00:38:40.099Z,31.40
2022-11-04T00:41:25.928Z,27.25
2022-11-04T00:43:53.980Z,28.25
2022-11-04T00:46:20.596Z,27.75
2022-11-04T00:48:47.434Z,31.87
2022-11-04T00:53:45.862Z,28.10
2022-11-04T00:56:12.546Z,29.75
2022-11-04T00:58:39.131Z,29.85
2022-11-04T01:01:10.011Z,30.90
2022-11-04T01:03:36.805Z,30.42
2022-11-04T01:06:03.526Z,33.28
2022-11-04T01:08:30.225Z,32.13
2022-11-04T01:10:56.871Z,30.83
2022-11-04T01:13:23.437Z,32.50
2022-11-04T01:15:50.093Z,32.55
2022-11-04T01:18:16.715Z,32.70
2022-11-04T01:20:43.435Z,34.55
2022-11-04T01:23:10.070Z,32.75
2022-11-04T01:25:40.462Z,33.50
2022-11-04T01:28:07.720Z,38.13
2022-11-04T01:30:34.695Z,35.17
2022-11-04T01:33:01.372Z,37.88
2022-11-04T01:35:31.286Z,36.90
2022-11-04T01:38:00.878Z,34.20
2022-11-04T01:40:27.490Z,38.58
2022-11-04T01:42:54.170Z,41.70
2022-11-04T01:45:21.451Z,33.25
2022-11-04T01:48:00.181Z,38.85
2022-11-04T01:50:28.203Z,40.35
2022-11-04T01:53:16.753Z,37.00
2022-11-04T01:55:51.754Z,37.78
2022-11-04T01:58:18.883Z,38.95
2022-11-04T02:00:45.518Z,38.50
2022-11-04T02:03:15.803Z,37.10
2022-11-04T02:05:42.561Z,39.40
2022-11-04T02:08:09.251Z,39.33
2022-11-04T02:10:35.913Z,37.60
2022-11-04T02:13:03.711Z,36.72
2022-11-04T02:18:19.331Z,43.20
2022-11-04T02:21:17.015Z,42.15
2022-11-04T02:23:58.252Z,37.20
2022-11-04T02:26:30.904Z,35.97
2022-11-04T02:29:18.490Z,38.38
2022-11-04T02:31:48.685Z,40.72
2022-11-04T02:34:42.323Z,36.33
2022-11-04T02:37:16.603Z,43.28
2022-11-04T02:40:04.603Z,39.22
2022-11-04T02:42:42.960Z,38.40
2022-11-04T02:45:37.195Z,42.03
2022-11-04T02:48:12.068Z,36.28
2022-11-04T02:50:53.410Z,40.15
2022-11-04T02:53:41.420Z,39.47
2022-11-04T02:56:08.060Z,45.17
2022-11-04T02:58:44.196Z,39.13
2022-11-04T03:01:13.836Z,40.15
2022-11-04T03:03:42.702Z,34.75
2022-11-04T03:06:10.264Z,36.30
2022-11-04T03:08:43.738Z,36.45
2022-11-04T03:11:23.892Z,45.17
2022-11-04T03:13:53.783Z,40.53
2022-11-04T03:16:37.920Z,38.60
2022-11-04T03:19:16.794Z,37.83
2022-11-04T03:21:53.572Z,40.47
2022-11-04T03:24:20.598Z,39.30
2022-11-04T03:26:59.561Z,37.88
2022-11-04T03:29:29.153Z,40.58
2022-11-04T03:32:04.725Z,37.38
2022-11-04T03:34:31.643Z,42.28
2022-11-04T03:36:58.273Z,40.83
2022-11-04T03:39:25.153Z,40.03
2022-11-04T03:41:54.489Z,41.33
2022-11-04T03:44:21.180Z,36.00
2022-11-04T03:46:47.801Z,44.53
2022-11-04T03:49:14.684Z,43.22
2022-11-04T03:51:41.312Z,41.57
2022-11-04T03:54:08.030Z,43.92
2022-11-04T03:56:56.324Z,43.00
2022-11-04T03:59:42.997Z,36.28
2022-11-04T04:02:14.903Z,40.38
2022-11-04T04:05:20.389Z,35.97
2022-11-04T04:07:57.717Z,39.00
2022-11-04T04:10:42.138Z,37.78
2022-11-04T04:13:31.425Z,47.30
2022-11-04T04:16:03.589Z,43.22
2022-11-04T04:18:52.703Z,41.95
2022-11-04T04:21:23.978Z,41.00
2022-11-04T04:24:10.207Z,43.35
2022-11-04T04:26:56.267Z,40.97
2022-11-04T04:29:23.753Z,37.50
2022-11-04T04:31:50.455Z,38.42
2022-11-04T04:34:21.879Z,41.03
2022-11-04T04:37:20.532Z,43.28
2022-11-04T04:40:19.564Z,44.63
2022-11-04T04:43:11.395Z,44.78
2022-11-04T04:45:38.811Z,43.80
2022-11-04T04:48:12.047Z,49.60
2022-11-04T04:50:41.088Z,50.20
2022-11-04T04:53:07.979Z,43.28
2022-11-04T04:55:40.526Z,50.78
2022-11-04T04:58:08.471Z,48.45
2022-11-04T05:00:36.879Z,48.97
2022-11-04T05:03:03.519Z,47.97
2022-11-04T05:05:30.150Z,51.00
2022-11-04T05:07:56.728Z,51.60
2022-11-04T05:10:23.307Z,48.95
2022-11-04T05:13:08.902Z,48.00
2022-11-04T05:15:35.615Z,46.55
2022-11-04T05:18:02.537Z,47.35
2022-11-04T05:20:30.377Z,49.33
2022-11-04T05:22:57.146Z,43.85
2022-11-04T05:25:23.751Z,41.70
2022-11-04T05:27:50.323Z,46.35
2022-11-04T05:30:16.997Z,46.37
2022-11-04T05:32:43.620Z,42.13
2022-11-04T05:35:10.144Z,44.67
2022-11-04T05:37:36.748Z,46.92
2022-11-04T05:40:03.558Z,44.20
2022-11-04T05:42:31.154Z,48.78
2022-11-04T05:44:57.752Z,48.03
2022-11-04T05:47:24.332Z,47.88
2022-11-04T05:49:50.894Z,48.03
2022-11-04T05:52:17.457Z,53.47
2022-11-04T05:54:44.008Z,48.15
2022-11-04T05:57:10.789Z,52.05
2022-11-04T05:59:37.316Z,46.72
2022-11-04T06:02:04.077Z,49.30
2022-11-04T06:04:30.720Z,55.53
2022-11-04T06:06:57.278Z,50.60
2022-11-04T06:09:38.977Z,55.85
2022-11-04T06:12:09.825Z,46.97
2022-11-04T06:14:36.415Z,51.50
2022-11-04T06:17:03.228Z,52.92
2022-11-04T06:19:29.808Z,51.88
2022-11-04T06:21:56.414Z,48.70
2022-11-04T06:24:23.050Z,49.88
2022-11-04T06:26:49.578Z,52.35
2022-11-04T06:29:16.130Z,51.97
2022-11-04T06:31:42.676Z,50.92
2022-11-04T06:34:09.257Z,49.65
2022-11-04T06:36:36.160Z,55.67
2022-11-04T06:39:05.010Z,51.07
2022-11-04T06:41:31.883Z,50.17
2022-11-04T06:43:58.436Z,46.92
2022-11-04T06:46:24.983Z,50.72
2022-11-04T06:48:51.575Z,53.78
2022-11-04T06:51:18.105Z,51.70
2022-11-04T06:53:44.630Z,51.33
2022-11-04T06:56:11.194Z,53.83
2022-11-04T06:58:37.794Z,55.53
2022-11-04T07:01:11.124Z,51.92
2022-11-04T07:03:40.177Z,46.10
2022-11-04T07:06:10.145Z,54.63
2022-11-04T07:08:36.861Z,44.92
2022-11-04T07:11:03.811Z,51.37
2022-11-04T07:13:30.460Z,53.20
2022-11-04T07:15:57.326Z,51.15
2022-11-04T07:18:23.941Z,48.33
2022-11-04T07:20:50.469Z,48.58
2022-11-04T07:23:17.083Z,46.53
2022-11-04T07:25:43.757Z,52.42
2022-11-04T07:28:11.027Z,52.05
2022-11-04T07:30:37.756Z,48.75
2022-11-04T07:33:04.345Z,51.55
2022-11-04T07:35:30.919Z,51.88
2022-11-04T07:37:57.481Z,49.28
2022-11-04T07:40:24.022Z,51.92
2022-11-04T07:42:50.618Z,54.50
2022-11-04T07:45:17.358Z,51.88
2022-11-04T07:47:43.911Z,52.13
2022-11-04T07:50:11.393Z,50.80
2022-11-04T07:55:05.114Z,51.17
2022-11-04T07:57:31.672Z,50.15
2022-11-04T07:59:58.189Z,53.45
2022-11-04T08:02:28.644Z,45.30
2022-11-04T08:04:57.684Z,46.58
2022-11-04T08:07:24.573Z,49.72
2022-11-04T08:09:51.149Z,45.90
2022-11-04T08:12:17.888Z,44.15
2022-11-04T08:14:44.500Z,49.50
2022-11-04T08:17:11.136Z,47.83
2022-11-04T08:19:37.683Z,43.22
2022-11-04T08:22:04.205Z,45.45
2022-11-04T08:24:30.733Z,45.35
2022-11-04T08:26:57.265Z,46.05
2022-11-04T08:29:23.965Z,45.72
2022-11-04T08:31:50.547Z,46.65
2022-11-04T08:34:18.460Z,46.67
2022-11-04T08:36:45.161Z,46.17
2022-11-04T08:39:11.991Z,42.42
2022-11-04T08:41:41.017Z,41.78
2022-11-04T08:44:07.748Z,45.22
2022-11-04T08:46:36.284Z,47.42
2022-11-04T08:49:07.008Z,40.72
2022-11-04T08:51:38.107Z,46.78
2022-11-04T08:54:05.347Z,48.33
2022-11-04T08:56:34.246Z,51.97
2022-11-04T08:59:02.024Z,46.95
2022-11-04T09:04:00.990Z,51.00
2022-11-04T09:06:30.318Z,47.40
2022-11-04T09:08:58.416Z,46.72
2022-11-04T09:11:24.963Z,47.50
2022-11-04T09:13:51.581Z,48.45
2022-11-04T09:16:18.131Z,44.33
2022-11-04T09:18:44.745Z,47.58
2022-11-04T09:21:11.431Z,44.05
2022-11-04T09:23:38.330Z,47.58
2022-11-04T09:26:10.055Z,45.77
2022-11-04T09:28:36.725Z,47.15
2022-11-04T09:31:17.151Z,47.75
2022-11-04T09:33:43.787Z,48.08
2022-11-04T09:36:10.591Z,48.90
2022-11-04T09:38:40.455Z,47.50
2022-11-04T09:41:30.006Z,46.22
2022-11-04T09:44:13.212Z,45.75
2022-11-04T09:46:39.776Z,45.00
2022-11-04T09:49:08.235Z,52.47
2022-11-04T09:54:25.372Z,52.35
2022-11-04T09:56:53.039Z,52.88
2022-11-04T09:59:28.831Z,50.85
2022-11-04T10:02:04.595Z,49.80
2022-11-04T10:04:35.322Z,50.58
2022-11-04T10:07:37.123Z,48.60
2022-11-04T10:10:37.418Z,50.45
2022-11-04T10:13:51.870Z,51.60
2022-11-04T10:16:52.539Z,51.28
2022-11-04T10:19:52.087Z,48.70
2022-11-04T10:22:32.217Z,52.40
2022-11-04T10:25:15.865Z,56.00
2022-11-04T10:27:44.615Z,50.78
2022-11-04T10:30:21.614Z,51.13
2022-11-04T10:32:59.795Z,54.47
2022-11-04T10:35:32.124Z,54.97
2022-11-04T10:38:01.776Z,50.63
2022-11-04T10:40:32.263Z,55.28
2022-11-04T10:42:59.394Z,46.92
2022-11-04T10:45:53.717Z,51.08
2022-11-04T10:48:27.795Z,55.20
2022-11-04T10:50:57.403Z,52.05
2022-11-04T10:53:28.326Z,53.30
2022-11-04T10:55:58.052Z,56.45
2022-11-04T10:58:27.476Z,60.20
2022-11-04T11:00:54.657Z,52.47
2022-11-04T11:03:28.561Z,56.05
2022-11-04T11:06:15.705Z,55.85
2022-11-04T11:08:42.847Z,50.22
2022-11-04T11:11:09.479Z,57.97
2022-11-04T11:13:38.554Z,54.95
2022-11-04T11:16:09.472Z,50.90
2022-11-04T11:18:38.804Z,53.50
2022-11-04T11:21:13.935Z,59.13
2022-11-04T11:23:40.455Z,52.85
2022-11-04T11:26:09.129Z,53.42
2022-11-04T11:28:38.361Z,54.88
2022-11-04T11:31:16.379Z,46.80
2022-11-04T11:34:04.103Z,52.25
2022-11-04T11:36:31.542Z,55.97
2022-11-04T11:39:05.784Z,54.47
2022-11-04T11:41:36.567Z,57.53
2022-11-04T11:44:07.798Z,51.58
2022-11-04T11:46:35.422Z,55.83
2022-11-04T11:49:03.215Z,47.50
2022-11-04T11:54:25.312Z,53.83
2022-11-04T12:02:41.255Z,53.25
2022-11-04T12:12:16.608Z,52.08
2022-11-04T12:15:01.825Z,51.25
2022-11-04T12:17:53.333Z,53.83
2022-11-04T12:20:51.017Z,54.40
2022-11-04T12:23:38.639Z,52.05
2022-11-04T12:26:26.792Z,55.03
2022-11-04T12:29:30.336Z,53.10
2022-11-04T12:32:14.664Z,51.37
2022-11-04T12:35:03.274Z,56.97
2022-11-04T12:37:52.243Z,52.75
2022-11-04T12:43:08.226Z,52.78
2022-11-04T12:45:53.695Z,57.40
2022-11-04T12:48:56.876Z,51.55
2022-11-04T12:51:53.876Z,59.80
2022-11-04T12:54:29.398Z,55.88
2022-11-04T12:57:31.035Z,53.70
2022-11-04T13:00:07.827Z,53.10
2022-11-04T13:02:40.800Z,56.05
2022-11-04T13:05:34.042Z,51.65
2022-11-04T13:08:14.518Z,55.85
2022-11-04T13:10:44.023Z,51.10
2022-11-04T13:13:11.024Z,49.13
2022-11-04T13:15:46.178Z,52.42
2022-11-04T13:18:19.074Z,52.90
2022-11-04T13:21:23.998Z,52.58
2022-11-04T13:24:11.832Z,50.22
2022-11-04T13:26:38.390Z,47.20
2022-11-04T13:29:12.555Z,50.75
2022-11-04T13:32:08.916Z,52.40
2022-11-04T13:34:52.007Z,51.08
2022-11-04T13:37:30.407Z,54.78
2022-11-04T13:43:30.544Z,50.85
2022-11-04T13:45:57.259Z,48.28
2022-11-04T13:48:29.372Z,53.67
2022-11-04T13:51:03.843Z,43.58
2022-11-04T13:53:48.132Z,53.65
2022-11-04T13:56:39.625Z,51.08
2022-11-04T13:59:26.833Z,50.95
2022-11-04T14:02:19.470Z,54.33
2022-11-04T14:04:46.908Z,47.20
2022-11-04T14:07:18.071Z,45.83
2022-11-04T14:09:44.519Z,47.45
2022-11-04T14:12:10.941Z,49.40
2022-11-04T14:14:38.432Z,43.40
2022-11-04T14:17:07.397Z,40.12
2022-11-04T14:19:55.994Z,43.47
2022-11-04T14:22:25.736Z,41.67
2022-11-04T14:24:59.968Z,38.78
2022-11-04T14:27:31.753Z,41.97
2022-11-04T14:29:58.309Z,42.25
2022-11-04T14:32:34.456Z,39.20
2022-11-04T14:35:03.395Z,39.97
2022-11-04T14:37:36.132Z,41.03
2022-11-04T14:40:05.682Z,45.85
2022-11-04T14:42:51.764Z,38.35
2022-11-04T14:45:39.534Z,40.40
2022-11-04T14:48:16.210Z,38.38
2022-11-04T14:50:45.203Z,42.50
2022-11-04T14:53:31.092Z,37.50
2022-11-04T14:56:07.534Z,38.78
2022-11-04T14:58:34.117Z,39.17
2022-11-04T15:01:01.796Z,37.60
2022-11-04T15:06:34.831Z,37.47
2022-11-04T15:09:20.276Z,39.28
2022-11-04T15:12:19.344Z,47.78
2022-11-04T15:14:46.218Z,42.62
2022-11-04T15:17:17.262Z,45.67
2022-11-04T15:19:43.816Z,48.22
2022-11-04T15:22:12.129Z,40.95
2022-11-04T15:24:38.662Z,48.28
2022-11-04T15:27:06.081Z,53.42
2022-11-04T15:29:32.680Z,47.50
2022-11-04T15:32:02.275Z,47.65
2022-11-04T15:34:31.246Z,56.53
2022-11-04T15:37:00.046Z,48.70
2022-11-04T15:39:27.009Z,49.70
2022-11-04T15:42:16.990Z,49.65
2022-11-04T15:44:51.275Z,50.72
2022-11-04T15:47:17.657Z,50.55
2022-11-04T15:49:44.553Z,52.30
2022-11-04T15:52:26.726Z,52.30
2022-11-04T15:54:54.520Z,52.72
2022-11-04T16:00:04.076Z,47.53
2022-11-04T16:02:32.239Z,49.70
2022-11-04T16:05:11.160Z,45.97
2022-11-04T16:07:47.980Z,51.55
2022-11-04T16:10:30.692Z,49.35
2022-11-04T16:13:03.991Z,49.05
2022-11-04T16:15:40.138Z,49.42
2022-11-04T16:18:07.595Z,48.15
2022-11-04T16:20:35.565Z,52.80
2022-11-04T16:23:02.514Z,48.67
2022-11-04T16:25:35.359Z,49.47
2022-11-04T16:28:02.321Z,46.72
2022-11-04T16:30:30.984Z,53.05
2022-11-04T16:33:10.384Z,49.17
2022-11-04T16:35:42.542Z,51.37
2022-11-04T16:38:09.191Z,56.70
2022-11-04T16:40:35.715Z,46.28
2022-11-04T16:43:02.581Z,48.22
2022-11-04T16:45:34.093Z,51.03
2022-11-04T16:48:00.744Z,51.58
2022-11-04T16:50:27.648Z,51.58
2022-11-04T16:52:54.315Z,43.70
2022-11-04T16:55:21.522Z,46.58
2022-11-04T16:57:48.202Z,52.72
2022-11-04T17:00:20.697Z,54.65
2022-11-04T17:02:47.296Z,54.47
2022-11-04T17:05:13.872Z,52.03
2022-11-04T17:07:52.776Z,42.88
2022-11-04T17:10:26.811Z,45.63
2022-11-04T17:12:53.484Z,49.40
2022-11-04T17:15:20.086Z,51.95
2022-11-04T17:17:46.674Z,45.08
2022-11-04T17:20:15.003Z,41.67
2022-11-04T17:22:41.680Z,44.35
2022-11-04T17:25:23.422Z,45.05
2022-11-04T17:27:50.097Z,48.65
2022-11-04T17:30:17.545Z,46.70
2022-11-04T17:32:44.378Z,48.58
2022-11-04T17:35:11.558Z,49.03
2022-11-04T17:37:38.174Z,49.03
2022-11-04T17:40:05.929Z,50.83
2022-11-04T17:45:17.799Z,48.38
2022-11-04T17:47:44.383Z,49.05
2022-11-04T17:50:10.958Z,51.83
2022-11-04T17:52:38.121Z,45.72
2022-11-04T17:55:05.157Z,50.03
2022-11-04T17:57:33.819Z,48.38
2022-11-04T18:00:00.522Z,48.83
2022-11-04T18:02:27.210Z,49.92
2022-11-04T18:04:53.944Z,48.97
2022-11-04T18:07:20.545Z,46.13
2022-11-04T18:09:47.103Z,46.85
2022-11-04T18:12:52.137Z,45.58
2022-11-04T18:15:19.002Z,44.42
2022-11-04T18:17:45.771Z,48.40
2022-11-04T18:20:15.333Z,50.15
2022-11-04T18:22:42.309Z,49.95
2022-11-04T18:25:09.543Z,45.13
2022-11-04T18:27:36.233Z,41.75
2022-11-04T18:30:02.867Z,49.10
2022-11-04T18:32:29.429Z,44.70
2022-11-04T18:34:55.958Z,50.90
2022-11-04T18:37:23.195Z,50.17
2022-11-04T18:39:49.871Z,55.28
2022-11-04T18:42:16.432Z,49.30
2022-11-04T18:44:43.026Z,47.40
2022-11-04T18:47:09.562Z,49.63
2022-11-04T18:49:36.099Z,49.55
2022-11-04T18:52:02.699Z,48.92
2022-11-04T18:54:29.283Z,47.30
2022-11-04T18:56:55.942Z,47.88
2022-11-04T18:59:22.477Z,51.88
2022-11-04T19:01:51.294Z,48.85
2022-11-04T19:04:18.575Z,49.42
2022-11-04T19:06:45.397Z,44.60
2022-11-04T19:09:44.936Z,40.57
2022-11-04T19:12:18.221Z,43.22
2022-11-04T19:14:44.812Z,43.35
2022-11-04T19:17:11.500Z,45.90
2022-11-04T19:19:39.369Z,45.92
2022-11-04T19:22:05.899Z,38.15
2022-11-04T19:24:32.491Z,39.58
2022-11-04T19:26:59.040Z,42.03
2022-11-04T19:29:25.972Z,43.33
2022-11-04T19:31:52.526Z,41.07
2022-11-04T19:34:19.141Z,40.53
2022-11-04T19:36:45.699Z,40.78
2022-11-04T19:39:12.252Z,43.15
2022-11-04T19:41:57.580Z,45.97
2022-11-04T19:44:24.125Z,41.05
2022-11-04T19:46:50.956Z,41.75
2022-11-04T19:49:17.800Z,39.47
2022-11-04T19:51:44.423Z,42.17
2022-11-04T19:54:12.203Z,43.65
2022-11-04T19:59:06.628Z,43.05
2022-11-04T20:01:34.776Z,44.65
2022-11-04T20:04:02.792Z,42.58
2022-11-04T20:08:56.129Z,47.85
2022-11-04T20:11:23.115Z,45.50
2022-11-04T20:13:49.871Z,41.75
2022-11-04T20:16:23.126Z,41.40
2022-11-04T20:18:51.612Z,40.75
2022-11-04T20:21:19.414Z,40.45
2022-11-04T20:26:20.396Z,41.40
2022-11-04T20:28:47.407Z,44.20
2022-11-04T20:31:19.762Z,42.00
2022-11-04T20:33:47.109Z,42.80
2022-11-04T20:36:14.881Z,42.33
2022-11-04T20:41:09.645Z,43.22
2022-11-04T20:43:37.407Z,41.55
2022-11-04T20:48:31.139Z,45.53
2022-11-04T20:50:57.727Z,48.35
2022-11-04T20:53:24.293Z,46.45
2022-11-04T20:55:50.855Z,47.95
2022-11-04T20:58:17.428Z,48.72
2022-11-04T21:00:43.975Z,46.10
2022-11-04T21:03:10.543Z,44.08
2022-11-04T21:05:37.170Z,44.70
2022-11-04T21:08:03.785Z,47.00
2022-11-04T21:10:30.330Z,45.40
2022-11-04T21:12:56.930Z,39.80
2022-11-04T21:15:41.652Z,46.13
2022-11-04T21:18:09.353Z,46.78
2022-11-04T21:20:39.642Z,48.87
2022-11-04T21:23:06.609Z,45.25
2022-11-04T21:25:39.464Z,56.05
2022-11-04T21:28:06.112Z,50.75
2022-11-04T21:30:36.841Z,44.15
2022-11-04T21:33:03.626Z,46.95
2022-11-04T21:35:30.211Z,47.88
2022-11-04T21:37:56.745Z,46.90
2022-11-04T21:40:23.335Z,45.50
2022-11-04T21:42:49.890Z,46.20
2022-11-04T21:45:16.812Z,42.45
2022-11-04T21:47:43.397Z,43.33
2022-11-04T21:50:15.195Z,44.58
2022-11-04T21:52:44.324Z,38.67
2022-11-04T21:55:11.024Z,41.35
2022-11-04T21:57:37.774Z,43.70
2022-11-04T22:00:06.286Z,40.88
2022-11-04T22:02:38.931Z,44.40
2022-11-04T22:05:06.506Z,41.72
2022-11-04T22:07:51.361Z,43.75
2022-11-04T22:10:18.001Z,48.80
2022-11-04T22:12:50.036Z,60.88
2022-11-04T22:15:37.126Z,68.82
2022-11-04T22:18:03.750Z,64.10
2022-11-04T22:20:30.401Z,73.30
2022-11-04T22:22:56.933Z,72.82
2022-11-04T22:25:24.218Z,71.60
2022-11-04T22:27:50.776Z,72.40
2022-11-04T22:30:17.381Z,76.65
2022-11-04T22:32:43.978Z,73.62
2022-11-04T22:35:10.589Z,67.35
2022-11-04T22:37:37.262Z,63.28
2022-11-04T22:40:04.202Z,59.45
2022-11-04T22:42:30.766Z,51.47
2022-11-04T22:44:57.360Z,47.33
2022-11-04T22:47:23.901Z,46.53
2022-11-04T22:49:50.449Z,42.95
2022-11-04T22:52:16.997Z,46.53
2022-11-04T22:54:43.612Z,41.83
2022-11-04T22:57:10.158Z,42.45
2022-11-04T22:59:36.703Z,43.47
2022-11-04T23:02:03.470Z,38.80
2022-11-04T23:04:30.246Z,41.27
2022-11-04T23:06:56.793Z,39.65
2022-11-04T23:09:23.715Z,37.47
2022-11-04T23:12:08.619Z,38.40
2022-11-04T23:14:40.787Z,30.73
2022-11-04T23:17:39.745Z,30.55
2022-11-04T23:20:11.571Z,32.70
2022-11-04T23:22:56.796Z,30.10
2022-11-04T23:25:23.554Z,33.42
2022-11-04T23:28:10.392Z,31.83
2022-11-04T23:30:39.319Z,30.85
2022-11-04T23:33:15.351Z,27.40
2022-11-04T23:36:02.451Z,25.75
2022-11-04T23:38:32.144Z,31.58
2022-11-04T23:41:19.293Z,26.52
2022-11-04T23:43:45.945Z,23.38
2022-11-04T23:46:31.099Z,21.30
2022-11-04T23:49:16.005Z,22.58
2022-11-04T23:52:00.836Z,19.10
2022-11-04T23:54:46.098Z,16.92
2022-11-04T23:57:34.847Z,18.20
